sensor_id;sensor_type;location;lat;lon;timestamp;pressure;altitude;pressure_sealevel;temperature;humidity
31357;BME280;60001;48.404;11.738;2023-02-14T00:01:07;98148.69;;;1.72;88.45
31357;BME280;60001;48.404;11.738;2023-02-14T00:02:39;98145.03;;;1.65;89.06
31357;BME280;60001;48.404;11.738;2023-02-14T00:04:14;98151.22;;;1.64;88.92
31357;BME280;60001;48.404;11.738;2023-02-14T00:05:46;98147.03;;;1.71;88.60
31357;BME280;60001;48.404;11.738;2023-02-14T00:07:18;98136.94;;;1.68;88.47
31357;BME280;60001;48.404;11.738;2023-02-14T00:08:50;98144.75;;;1.68;89.01
31357;BME280;60001;48.404;11.738;2023-02-14T00:10:23;98147.78;;;1.63;88.74
31357;BME280;60001;48.404;11.738;2023-02-14T00:11:55;98146.97;;;1.63;88.87
31357;BME280;60001;48.404;11.738;2023-02-14T00:13:28;98150.25;;;1.65;88.78
31357;BME280;60001;48.404;11.738;2023-02-14T00:15:00;98148.31;;;1.67;88.58
31357;BME280;60001;48.404;11.738;2023-02-14T00:16:50;98149.97;;;1.68;88.76
31357;BME280;60001;48.404;11.738;2023-02-14T00:18:21;98142.00;;;1.70;89.29
31357;BME280;60001;48.404;11.738;2023-02-14T00:20:14;98137.91;;;1.67;89.26
31357;BME280;60001;48.404;11.738;2023-02-14T00:21:47;98145.09;;;1.73;89.08
31357;BME280;60001;48.404;11.738;2023-02-14T00:23:19;98136.94;;;1.68;88.60
31357;BME280;60001;48.404;11.738;2023-02-14T00:24:51;98152.25;;;1.71;88.84
31357;BME280;60001;48.404;11.738;2023-02-14T00:26:23;98154.56;;;1.74;88.95
31357;BME280;60001;48.404;11.738;2023-02-14T00:27:54;98151.97;;;1.74;88.79
31357;BME280;60001;48.404;11.738;2023-02-14T00:29:29;98150.63;;;1.52;89.60
31357;BME280;60001;48.404;11.738;2023-02-14T00:31:01;98155.75;;;1.62;89.23
31357;BME280;60001;48.404;11.738;2023-02-14T00:32:36;98153.00;;;1.63;89.19
31357;BME280;60001;48.404;11.738;2023-02-14T00:34:13;98152.41;;;1.70;89.11
31357;BME280;60001;48.404;11.738;2023-02-14T00:35:45;98153.75;;;1.56;89.03
31357;BME280;60001;48.404;11.738;2023-02-14T00:37:17;98160.69;;;1.47;88.96
31357;BME280;60001;48.404;11.738;2023-02-14T00:38:49;98159.84;;;1.47;88.89
31357;BME280;60001;48.404;11.738;2023-02-14T00:40:21;98161.34;;;1.49;89.71
31357;BME280;60001;48.404;11.738;2023-02-14T00:41:52;98154.72;;;1.55;89.41
31357;BME280;60001;48.404;11.738;2023-02-14T00:43:24;98158.00;;;1.57;90.06
31357;BME280;60001;48.404;11.738;2023-02-14T00:44:56;98157.16;;;1.56;89.90
31357;BME280;60001;48.404;11.738;2023-02-14T00:46:28;98158.66;;;1.59;89.48
31357;BME280;60001;48.404;11.738;2023-02-14T00:48:00;98153.44;;;1.59;89.54
31357;BME280;60001;48.404;11.738;2023-02-14T00:49:32;98149.44;;;1.64;89.92
31357;BME280;60001;48.404;11.738;2023-02-14T00:51:07;98166.03;;;1.63;89.93
31357;BME280;60001;48.404;11.738;2023-02-14T00:52:39;98155.44;;;1.65;90.09
31357;BME280;60001;48.404;11.738;2023-02-14T00:54:11;98166.84;;;1.64;89.33
31357;BME280;60001;48.404;11.738;2023-02-14T00:55:43;98164.91;;;1.66;89.29
31357;BME280;60001;48.404;11.738;2023-02-14T00:57:15;98164.91;;;1.66;89.33
31357;BME280;60001;48.404;11.738;2023-02-14T00:58:48;98162.28;;;1.66;89.83
31357;BME280;60001;48.404;11.738;2023-02-14T01:00:19;98162.28;;;1.66;89.41
31357;BME280;60001;48.404;11.738;2023-02-14T01:01:51;98160.00;;;1.63;89.28
31357;BME280;60001;48.404;11.738;2023-02-14T01:03:23;98158.38;;;1.62;89.64
31357;BME280;60001;48.404;11.738;2023-02-14T01:04:55;98158.00;;;1.57;89.70
31357;BME280;60001;48.404;11.738;2023-02-14T01:06:28;98156.84;;;1.59;89.73
31357;BME280;60001;48.404;11.738;2023-02-14T01:08:00;98160.16;;;1.61;89.49
31357;BME280;60001;48.404;11.738;2023-02-14T01:09:32;98160.00;;;1.63;89.61
31357;BME280;60001;48.404;11.738;2023-02-14T01:11:09;98154.63;;;1.64;88.86
31357;BME280;60001;48.404;11.738;2023-02-14T01:12:41;98157.25;;;1.64;89.72
31357;BME280;60001;48.404;11.738;2023-02-14T01:14:13;98168.47;;;1.65;88.94
31357;BME280;60001;48.404;11.738;2023-02-14T01:15:47;98165.22;;;1.63;89.36
31357;BME280;60001;48.404;11.738;2023-02-14T01:17:20;98172.63;;;1.58;89.04
31357;BME280;60001;48.404;11.738;2023-02-14T01:18:52;98178.81;;;1.57;89.28
31357;BME280;60001;48.404;11.738;2023-02-14T01:20:23;98165.28;;;1.53;89.22
31357;BME280;60001;48.404;11.738;2023-02-14T01:21:56;98167.91;;;1.53;90.03
31357;BME280;60001;48.404;11.738;2023-02-14T01:23:28;98166.78;;;1.56;89.83
31357;BME280;60001;48.404;11.738;2023-02-14T01:24:59;98158.19;;;1.46;89.20
31357;BME280;60001;48.404;11.738;2023-02-14T01:26:31;98151.13;;;1.38;89.67
31357;BME280;60001;48.404;11.738;2023-02-14T01:28:02;98165.06;;;1.47;89.86
31357;BME280;60001;48.404;11.738;2023-02-14T01:29:34;98157.25;;;1.47;90.10
31357;BME280;60001;48.404;11.738;2023-02-14T01:31:10;98154.19;;;1.51;89.70
31357;BME280;60001;48.404;11.738;2023-02-14T01:32:43;98161.03;;;1.52;89.30
31357;BME280;60001;48.404;11.738;2023-02-14T01:34:15;98163.13;;;1.49;89.31
31357;BME280;60001;48.404;11.738;2023-02-14T01:35:47;98162.91;;;1.42;89.48
31357;BME280;60001;48.404;11.738;2023-02-14T01:37:19;98161.78;;;1.45;90.09
31357;BME280;60001;48.404;11.738;2023-02-14T01:38:52;98165.34;;;1.44;89.95
31357;BME280;60001;48.404;11.738;2023-02-14T01:40:24;98164.69;;;1.42;89.77
31357;BME280;60001;48.404;11.738;2023-02-14T01:41:55;98168.53;;;1.37;89.38
31357;BME280;60001;48.404;11.738;2023-02-14T01:43:27;98163.34;;;1.37;89.82
31357;BME280;60001;48.404;11.738;2023-02-14T01:45:02;98169.50;;;1.36;89.79
31357;BME280;60001;48.404;11.738;2023-02-14T01:46:36;98172.53;;;1.32;89.51
31357;BME280;60001;48.404;11.738;2023-02-14T01:48:09;98169.81;;;1.33;89.66
31357;BME280;60001;48.404;11.738;2023-02-14T01:49:46;98166.66;;;1.30;89.69
31357;BME280;60001;48.404;11.738;2023-02-14T01:51:21;98169.94;;;1.32;89.40
31357;BME280;60001;48.404;11.738;2023-02-14T01:52:59;98162.75;;;1.26;90.16
31357;BME280;60001;48.404;11.738;2023-02-14T01:54:36;98164.88;;;1.30;89.58
31357;BME280;60001;48.404;11.738;2023-02-14T01:56:17;98166.16;;;1.26;89.87
31357;BME280;60001;48.404;11.738;2023-02-14T01:57:54;98170.91;;;1.13;89.16
31357;BME280;60001;48.404;11.738;2023-02-14T01:59:33;98159.44;;;1.06;89.79
31357;BME280;60001;48.404;11.738;2023-02-14T02:01:06;98168.72;;;1.08;90.00
31357;BME280;60001;48.404;11.738;2023-02-14T02:02:37;98172.97;;;1.09;90.18
31357;BME280;60001;48.404;11.738;2023-02-14T02:04:13;98172.00;;;1.10;89.63
31357;BME280;60001;48.404;11.738;2023-02-14T02:05:51;98173.09;;;1.08;90.02
31357;BME280;60001;48.404;11.738;2023-02-14T02:07:26;98172.00;;;1.10;90.24
31357;BME280;60001;48.404;11.738;2023-02-14T02:09:09;98162.94;;;1.15;90.61
31357;BME280;60001;48.404;11.738;2023-02-14T02:10:43;98170.59;;;1.16;90.38
31357;BME280;60001;48.404;11.738;2023-02-14T02:12:15;98161.59;;;1.10;90.42
31357;BME280;60001;48.404;11.738;2023-02-14T02:13:47;98168.28;;;1.13;90.67
31357;BME280;60001;48.404;11.738;2023-02-14T02:15:21;98163.91;;;1.14;90.54
31357;BME280;60001;48.404;11.738;2023-02-14T02:17:19;98162.94;;;1.15;90.22
31357;BME280;60001;48.404;11.738;2023-02-14T02:19:08;98163.91;;;1.14;89.65
31357;BME280;60001;48.404;11.738;2023-02-14T02:23:59;98152.97;;;1.10;89.29
31357;BME280;60001;48.404;11.738;2023-02-14T02:26:01;98146.34;;;1.16;90.06
31357;BME280;60001;48.404;11.738;2023-02-14T02:27:59;98150.44;;;1.18;90.33
31357;BME280;60001;48.404;11.738;2023-02-14T02:30:05;98151.13;;;1.20;89.97
31357;BME280;60001;48.404;11.738;2023-02-14T02:32:11;98142.63;;;1.18;89.78
31357;BME280;60001;48.404;11.738;2023-02-14T02:34:36;98139.38;;;1.16;89.51
31357;BME280;60001;48.404;11.738;2023-02-14T02:36:45;98143.75;;;1.16;90.19
31357;BME280;60001;48.404;11.738;2023-02-14T02:38:35;98136.25;;;1.13;89.65
31357;BME280;60001;48.404;11.738;2023-02-14T02:40:27;98150.75;;;1.15;89.92
31357;BME280;60001;48.404;11.738;2023-02-14T02:42:09;98143.09;;;1.14;89.79
31357;BME280;60001;48.404;11.738;2023-02-14T02:43:53;98142.56;;;1.10;89.79
31357;BME280;60001;48.404;11.738;2023-02-14T02:45:36;98143.75;;;1.16;90.19
31357;BME280;60001;48.404;11.738;2023-02-14T02:47:35;98140.03;;;1.18;89.41
31357;BME280;60001;48.404;11.738;2023-02-14T02:49:16;98137.44;;;1.18;89.49
31357;BME280;60001;48.404;11.738;2023-02-14T02:51:11;98144.72;;;1.15;89.69
31357;BME280;60001;48.404;11.738;2023-02-14T02:53:15;98137.34;;;1.10;89.48
31357;BME280;60001;48.404;11.738;2023-02-14T02:54:57;98135.44;;;1.12;89.29
31357;BME280;60001;48.404;11.738;2023-02-14T02:56:36;98133.78;;;1.11;89.14
31357;BME280;60001;48.404;11.738;2023-02-14T02:58:18;98132.84;;;1.12;89.20
31357;BME280;60001;48.404;11.738;2023-02-14T02:59:55;98142.28;;;1.13;89.70
31357;BME280;60001;48.404;11.738;2023-02-14T03:01:31;98138.03;;;1.12;89.26
31357;BME280;60001;48.404;11.738;2023-02-14T03:03:05;98138.56;;;1.16;89.49
31357;BME280;60001;48.404;11.738;2023-02-14T03:04:56;98141.31;;;1.14;89.29
31357;BME280;60001;48.404;11.738;2023-02-14T03:06:28;98134.91;;;1.08;89.52
31357;BME280;60001;48.404;11.738;2023-02-14T03:08:01;98136.53;;;1.09;89.75
31357;BME280;60001;48.404;11.738;2023-02-14T03:09:55;98141.75;;;1.09;89.58
31357;BME280;60001;48.404;11.738;2023-02-14T03:11:29;98135.88;;;1.07;89.77
31357;BME280;60001;48.404;11.738;2023-02-14T03:15:21;98125.91;;;1.03;89.24
31357;BME280;60001;48.404;11.738;2023-02-14T03:17:03;98131.09;;;1.03;89.37
31357;BME280;60001;48.404;11.738;2023-02-14T03:18:47;98137.66;;;1.07;89.60
31357;BME280;60001;48.404;11.738;2023-02-14T03:20:51;98136.69;;;1.08;89.58
31357;BME280;60001;48.404;11.738;2023-02-14T03:22:39;98140.91;;;1.09;89.72
31357;BME280;60001;48.404;11.738;2023-02-14T03:24:20;98139.94;;;1.10;90.37
31357;BME280;60001;48.404;11.738;2023-02-14T03:26:06;98134.91;;;1.08;89.84
31357;BME280;60001;48.404;11.738;2023-02-14T03:27:45;98140.25;;;1.07;89.79
31357;BME280;60001;48.404;11.738;2023-02-14T03:29:26;98138.91;;;1.03;89.72
31357;BME280;60001;48.404;11.738;2023-02-14T03:31:06;98135.78;;;0.99;88.99
31357;BME280;60001;48.404;11.738;2023-02-14T03:32:47;98133.78;;;0.93;89.41
31357;BME280;60001;48.404;11.738;2023-02-14T03:34:29;98143.06;;;0.96;89.12
31357;BME280;60001;48.404;11.738;2023-02-14T03:36:07;98139.47;;;0.97;89.59
31357;BME280;60001;48.404;11.738;2023-02-14T03:37:46;98146.47;;;0.96;90.02
31357;BME280;60001;48.404;11.738;2023-02-14T03:39:24;98141.00;;;0.99;90.00
31357;BME280;60001;48.404;11.738;2023-02-14T03:41:02;98137.28;;;1.02;90.36
31357;BME280;60001;48.404;11.738;2023-02-14T03:42:39;98136.56;;;0.82;89.93
31357;BME280;60001;48.404;11.738;2023-02-14T03:44:18;98137.38;;;0.82;89.56
31357;BME280;60001;48.404;11.738;2023-02-14T03:45:57;98147.91;;;0.81;90.10
31357;BME280;60001;48.404;11.738;2023-02-14T03:47:36;98143.69;;;0.80;90.83
31357;BME280;60001;48.404;11.738;2023-02-14T03:49:15;98135.47;;;0.85;90.28
31357;BME280;60001;48.404;11.738;2023-02-14T03:50:51;98133.53;;;0.87;90.58
31357;BME280;60001;48.404;11.738;2023-02-14T03:52:27;98132.97;;;0.83;89.63
31357;BME280;60001;48.404;11.738;2023-02-14T03:54:03;98138.25;;;0.73;90.11
31357;BME280;60001;48.404;11.738;2023-02-14T03:55:43;98141.50;;;0.75;89.80
31357;BME280;60001;48.404;11.738;2023-02-14T03:57:22;98145.63;;;0.78;89.97
31357;BME280;60001;48.404;11.738;2023-02-14T03:58:59;98137.81;;;0.78;90.27
31357;BME280;60001;48.404;11.738;2023-02-14T04:00:39;98138.41;;;0.72;89.74
31357;BME280;60001;48.404;11.738;2023-02-14T04:02:16;98148.66;;;0.73;90.16
31357;BME280;60001;48.404;11.738;2023-02-14T04:03:52;98137.59;;;0.71;89.46
31357;BME280;60001;48.404;11.738;2023-02-14T04:05:27;98142.63;;;0.73;89.83
31357;BME280;60001;48.404;11.738;2023-02-14T04:07:07;98139.06;;;0.74;90.21
31357;BME280;60001;48.404;11.738;2023-02-14T04:08:39;98135.81;;;0.72;90.83
31357;BME280;60001;48.404;11.738;2023-02-14T04:10:11;98134.25;;;0.79;90.97
31357;BME280;60001;48.404;11.738;2023-02-14T04:11:44;98137.25;;;0.84;90.92
31357;BME280;60001;48.404;11.738;2023-02-14T04:13:17;98143.94;;;0.87;89.99
31357;BME280;60001;48.404;11.738;2023-02-14T04:14:50;98131.59;;;0.89;90.11
31357;BME280;60001;48.404;11.738;2023-02-14T04:16:21;98125.19;;;0.83;89.88
31357;BME280;60001;48.404;11.738;2023-02-14T04:17:52;98126.03;;;0.84;89.68
31357;BME280;60001;48.404;11.738;2023-02-14T04:19:41;98132.88;;;0.85;89.59
31357;BME280;60001;48.404;11.738;2023-02-14T04:21:13;98130.88;;;0.69;89.74
31357;BME280;60001;48.404;11.738;2023-02-14T04:22:45;98142.09;;;0.69;90.53
31357;BME280;60001;48.404;11.738;2023-02-14T04:24:18;98134.16;;;0.71;90.54
31357;BME280;60001;48.404;11.738;2023-02-14T04:25:50;98131.03;;;0.67;90.35
31357;BME280;60001;48.404;11.738;2023-02-14T04:27:21;98141.16;;;0.70;90.35
31357;BME280;60001;48.404;11.738;2023-02-14T04:28:55;98138.56;;;0.70;90.21
31357;BME280;60001;48.404;11.738;2023-02-14T04:30:26;98134.84;;;0.73;90.12
31357;BME280;60001;48.404;11.738;2023-02-14T04:31:58;98125.78;;;0.77;90.49
31357;BME280;60001;48.404;11.738;2023-02-14T04:33:30;98126.88;;;0.74;90.76
31357;BME280;60001;48.404;11.738;2023-02-14T04:35:01;98132.09;;;0.74;90.02
31357;BME280;60001;48.404;11.738;2023-02-14T04:36:32;98132.09;;;0.74;90.07
31357;BME280;60001;48.404;11.738;2023-02-14T04:38:05;98132.16;;;0.55;90.28
31357;BME280;60001;48.404;11.738;2023-02-14T04:39:37;98128.47;;;0.58;90.48
31357;BME280;60001;48.404;11.738;2023-02-14T04:41:09;98129.16;;;0.60;90.31
31357;BME280;60001;48.404;11.738;2023-02-14T04:42:39;98123.94;;;0.60;90.49
31357;BME280;60001;48.404;11.738;2023-02-14T04:44:13;98128.91;;;0.53;90.49
31357;BME280;60001;48.404;11.738;2023-02-14T04:45:46;98124.03;;;0.40;90.48
31357;BME280;60001;48.404;11.738;2023-02-14T04:47:18;98128.13;;;0.43;90.12
31357;BME280;60001;48.404;11.738;2023-02-14T04:48:49;98127.16;;;0.44;91.14
31357;BME280;60001;48.404;11.738;2023-02-14T04:50:20;98105.88;;;0.31;91.41
31357;BME280;60001;48.404;11.738;2023-02-14T04:51:55;98129.19;;;0.50;91.08
31357;BME280;60001;48.404;11.738;2023-02-14T04:53:27;98115.22;;;0.51;91.10
31357;BME280;60001;48.404;11.738;2023-02-14T04:54:59;98123.94;;;0.60;91.54
31357;BME280;60001;48.404;11.738;2023-02-14T04:56:31;98123.38;;;0.66;91.15
31357;BME280;60001;48.404;11.738;2023-02-14T04:58:03;98119.97;;;0.65;91.16
31357;BME280;60001;48.404;11.738;2023-02-14T04:59:37;98122.41;;;0.67;90.49
31357;BME280;60001;48.404;11.738;2023-02-14T05:01:08;98115.28;;;0.69;90.37
31357;BME280;60001;48.404;11.738;2023-02-14T05:02:40;98108.28;;;0.69;90.77
31357;BME280;60001;48.404;11.738;2023-02-14T05:04:12;98114.03;;;0.73;90.11
31357;BME280;60001;48.404;11.738;2023-02-14T05:05:44;98116.78;;;0.71;89.97
31357;BME280;60001;48.404;11.738;2023-02-14T05:07:17;98105.84;;;0.68;90.37
31357;BME280;60001;48.404;11.738;2023-02-14T05:08:48;98110.22;;;0.67;89.89
31357;BME280;60001;48.404;11.738;2023-02-14T05:10:20;98103.81;;;0.62;89.64
31357;BME280;60001;48.404;11.738;2023-02-14T05:11:52;98106.41;;;0.62;90.28
31357;BME280;60001;48.404;11.738;2023-02-14T05:13:24;98094.22;;;0.62;89.96
31357;BME280;60001;48.404;11.738;2023-02-14T05:14:57;98100.41;;;0.61;89.72
31357;BME280;60001;48.404;11.738;2023-02-14T05:16:29;98095.09;;;0.63;90.06
31357;BME280;60001;48.404;11.738;2023-02-14T05:18:01;98097.69;;;0.63;90.11
31357;BME280;60001;48.404;11.738;2023-02-14T05:19:35;98100.28;;;0.63;90.15
31357;BME280;60001;48.404;11.738;2023-02-14T05:21:06;98109.72;;;0.64;90.42
31357;BME280;60001;48.404;11.738;2023-02-14T05:22:38;98102.03;;;0.62;90.12
31357;BME280;60001;48.404;11.738;2023-02-14T05:24:10;98099.44;;;0.62;89.73
31357;BME280;60001;48.404;11.738;2023-02-14T05:25:42;98097.13;;;0.59;90.31
31357;BME280;60001;48.404;11.738;2023-02-14T05:27:14;98102.19;;;0.61;89.82
31357;BME280;60001;48.404;11.738;2023-02-14T05:28:46;98098.75;;;0.60;89.85
31357;BME280;60001;48.404;11.738;2023-02-14T05:30:20;98100.56;;;0.60;89.98
31357;BME280;60001;48.404;11.738;2023-02-14T05:31:55;98101.09;;;0.63;90.05
31357;BME280;60001;48.404;11.738;2023-02-14T05:33:27;98106.16;;;0.65;89.89
31357;BME280;60001;48.404;11.738;2023-02-14T05:34:59;98099.81;;;0.67;90.30
31357;BME280;60001;48.404;11.738;2023-02-14T05:36:31;98110.22;;;0.67;90.06
31357;BME280;60001;48.404;11.738;2023-02-14T05:38:03;98104.06;;;0.68;89.55
31357;BME280;60001;48.404;11.738;2023-02-14T05:39:35;98105.69;;;0.69;90.21
31357;BME280;60001;48.404;11.738;2023-02-14T05:41:07;98109.56;;;0.65;89.73
31357;BME280;60001;48.404;11.738;2023-02-14T05:42:39;98109.41;;;0.67;89.49
31357;BME280;60001;48.404;11.738;2023-02-14T05:44:11;98104.34;;;0.65;89.78
31357;BME280;60001;48.404;11.738;2023-02-14T05:45:44;98107.47;;;0.69;89.89
31357;BME280;60001;48.404;11.738;2023-02-14T05:47:16;98114.19;;;0.71;90.08
31357;BME280;60001;48.404;11.738;2023-02-14T05:48:48;98101.22;;;0.62;89.24
31357;BME280;60001;48.404;11.738;2023-02-14T05:50:20;98113.84;;;0.57;89.36
31357;BME280;60001;48.404;11.738;2023-02-14T05:51:51;98115.22;;;0.51;89.20
31357;BME280;60001;48.404;11.738;2023-02-14T05:53:23;98119.47;;;0.52;89.88
31357;BME280;60001;48.404;11.738;2023-02-14T05:54:55;98110.19;;;0.49;89.89
31357;BME280;60001;48.404;11.738;2023-02-14T05:56:27;98117.84;;;0.51;89.76
31357;BME280;60001;48.404;11.738;2023-02-14T05:57:59;98117.53;;;0.54;90.11
31357;BME280;60001;48.404;11.738;2023-02-14T05:59:31;98115.63;;;0.56;90.26
31357;BME280;60001;48.404;11.738;2023-02-14T06:01:04;98117.13;;;0.59;90.32
31357;BME280;60001;48.404;11.738;2023-02-14T06:02:37;98118.91;;;0.58;89.76
31357;BME280;60001;48.404;11.738;2023-02-14T06:04:08;98108.66;;;0.57;90.11
31357;BME280;60001;48.404;11.738;2023-02-14T06:05:40;98117.25;;;0.57;89.48
31357;BME280;60001;48.404;11.738;2023-02-14T06:07:12;98111.25;;;0.57;89.34
31357;BME280;60001;48.404;11.738;2023-02-14T06:08:44;98115.09;;;0.52;89.35
31357;BME280;60001;48.404;11.738;2023-02-14T06:10:16;98113.72;;;0.48;89.81
31357;BME280;60001;48.404;11.738;2023-02-14T06:11:48;98116.47;;;0.47;89.84
31357;BME280;60001;48.404;11.738;2023-02-14T06:13:20;98117.16;;;0.49;90.35
31357;BME280;60001;48.404;11.738;2023-02-14T06:14:54;98128.38;;;0.49;89.86
31357;BME280;60001;48.404;11.738;2023-02-14T06:16:27;98125.47;;;0.52;90.40
31357;BME280;60001;48.404;11.738;2023-02-14T06:17:59;98125.31;;;0.54;90.20
31357;BME280;60001;48.404;11.738;2023-02-14T06:19:31;98129.56;;;0.55;90.47
31357;BME280;60001;48.404;11.738;2023-02-14T06:21:04;98128.63;;;0.56;90.25
31357;BME280;60001;48.404;11.738;2023-02-14T06:22:35;98129.72;;;0.53;89.60
31357;BME280;60001;48.404;11.738;2023-02-14T06:24:08;98130.25;;;0.57;90.13
31357;BME280;60001;48.404;11.738;2023-02-14T06:25:40;98127.94;;;0.54;89.26
31357;BME280;60001;48.404;11.738;2023-02-14T06:27:12;98130.38;;;0.55;89.44
31357;BME280;60001;48.404;11.738;2023-02-14T06:28:44;98108.44;;;0.40;89.51
31357;BME280;60001;48.404;11.738;2023-02-14T06:30:17;98134.09;;;0.53;89.89
31357;BME280;60001;48.404;11.738;2023-02-14T06:31:51;98135.72;;;0.54;89.61
31357;BME280;60001;48.404;11.738;2023-02-14T06:33:22;98131.50;;;0.53;89.25
31357;BME280;60001;48.404;11.738;2023-02-14T06:34:54;98124.13;;;0.48;89.98
31357;BME280;60001;48.404;11.738;2023-02-14T06:36:27;98137.00;;;0.50;89.51
31357;BME280;60001;48.404;11.738;2023-02-14T06:37:59;98135.34;;;0.49;89.13
31357;BME280;60001;48.404;11.738;2023-02-14T06:39:31;98135.22;;;0.50;89.45
31357;BME280;60001;48.404;11.738;2023-02-14T06:41:03;98132.31;;;0.53;89.58
31357;BME280;60001;48.404;11.738;2023-02-14T06:42:36;98135.34;;;0.49;89.91
31357;BME280;60001;48.404;11.738;2023-02-14T06:44:08;98138.63;;;0.51;89.75
31357;BME280;60001;48.404;11.738;2023-02-14T06:45:40;98133.56;;;0.49;89.56
31357;BME280;60001;48.404;11.738;2023-02-14T06:47:15;98140.41;;;0.50;89.65
31357;BME280;60001;48.404;11.738;2023-02-14T06:48:47;98131.91;;;0.48;89.46
31357;BME280;60001;48.404;11.738;2023-02-14T06:50:18;98137.50;;;0.53;90.03
31357;BME280;60001;48.404;11.738;2023-02-14T06:51:50;98140.50;;;0.59;90.18
31357;BME280;60001;48.404;11.738;2023-02-14T06:53:22;98140.50;;;0.59;90.29
31357;BME280;60001;48.404;11.738;2023-02-14T06:54:54;98141.31;;;0.59;89.92
31357;BME280;60001;48.404;11.738;2023-02-14T06:56:25;98135.81;;;0.62;89.96
31357;BME280;60001;48.404;11.738;2023-02-14T06:57:57;98131.75;;;0.60;89.33
31357;BME280;60001;48.404;11.738;2023-02-14T06:59:29;98136.94;;;0.60;89.28
31357;BME280;60001;48.404;11.738;2023-02-14T07:01:01;98131.22;;;0.56;88.96
31357;BME280;60001;48.404;11.738;2023-02-14T07:02:34;98131.22;;;0.56;89.04
31357;BME280;60001;48.404;11.738;2023-02-14T07:04:06;98126.03;;;0.56;89.21
31357;BME280;60001;48.404;11.738;2023-02-14T07:05:38;98135.47;;;0.57;89.15
31357;BME280;60001;48.404;11.738;2023-02-14T07:07:10;98130.81;;;0.51;88.86
31357;BME280;60001;48.404;11.738;2023-02-14T07:08:41;98124.66;;;0.52;89.11
31357;BME280;60001;48.404;11.738;2023-02-14T07:10:14;98119.16;;;0.55;89.47
31357;BME280;60001;48.404;11.738;2023-02-14T07:11:46;98122.31;;;0.59;89.59
31357;BME280;60001;48.404;11.738;2023-02-14T07:13:16;98121.09;;;0.53;89.23
31357;BME280;60001;48.404;11.738;2023-02-14T07:14:48;98124.09;;;0.58;89.90
31357;BME280;60001;48.404;11.738;2023-02-14T07:16:20;98126.53;;;0.60;89.82
31357;BME280;60001;48.404;11.738;2023-02-14T07:17:53;98116.72;;;0.53;89.45
31357;BME280;60001;48.404;11.738;2023-02-14T07:19:25;98130.94;;;0.59;89.72
31357;BME280;60001;48.404;11.738;2023-02-14T07:20:57;98128.19;;;0.61;89.56
31357;BME280;60001;48.404;11.738;2023-02-14T07:22:29;98123.28;;;0.58;88.60
31357;BME280;60001;48.404;11.738;2023-02-14T07:24:00;98124.06;;;0.31;88.19
31357;BME280;60001;48.404;11.738;2023-02-14T07:25:32;98124.53;;;0.16;88.61
31357;BME280;60001;48.404;11.738;2023-02-14T07:27:04;98125.75;;;0.12;88.92
31357;BME280;60001;48.404;11.738;2023-02-14T07:28:36;98124.44;;;-0.11;89.23
31357;BME280;60001;48.404;11.738;2023-02-14T07:30:09;98106.13;;;0.00;89.61
31357;BME280;60001;48.404;11.738;2023-02-14T07:31:41;98118.81;;;0.03;89.58
31357;BME280;60001;48.404;11.738;2023-02-14T07:33:14;98117.06;;;-0.06;89.91
31357;BME280;60001;48.404;11.738;2023-02-14T07:34:46;98121.56;;;0.02;90.23
31357;BME280;60001;48.404;11.738;2023-02-14T07:36:18;98104.59;;;0.07;90.48
31357;BME280;60001;48.404;11.738;2023-02-14T07:37:50;98108.56;;;0.02;90.49
31357;BME280;60001;48.404;11.738;2023-02-14T07:39:22;98105.13;;;0.11;90.20
31357;BME280;60001;48.404;11.738;2023-02-14T07:40:54;98109.59;;;0.18;90.53
31357;BME280;60001;48.404;11.738;2023-02-14T07:42:26;98109.03;;;0.24;90.65
31357;BME280;60001;48.404;11.738;2023-02-14T07:43:59;98097.97;;;0.22;90.21
31357;BME280;60001;48.404;11.738;2023-02-14T07:45:31;98110.00;;;0.23;89.85
31357;BME280;60001;48.404;11.738;2023-02-14T07:47:03;98108.06;;;0.25;90.02
31357;BME280;60001;48.404;11.738;2023-02-14T07:48:36;98109.44;;;0.30;90.15
31357;BME280;60001;48.404;11.738;2023-02-14T07:50:08;98111.88;;;0.31;90.12
31357;BME280;60001;48.404;11.738;2023-02-14T07:51:40;98110.09;;;0.32;89.24
31357;BME280;60001;48.404;11.738;2023-02-14T07:53:12;98112.28;;;0.36;89.07
31357;BME280;60001;48.404;11.738;2023-02-14T07:54:44;98096.81;;;0.35;89.05
31357;BME280;60001;48.404;11.738;2023-02-14T07:56:15;98098.59;;;0.34;89.38
31357;BME280;60001;48.404;11.738;2023-02-14T07:57:48;98105.41;;;0.45;89.80
31357;BME280;60001;48.404;11.738;2023-02-14T07:59:20;98104.28;;;0.47;89.33
31357;BME280;60001;48.404;11.738;2023-02-14T08:00:51;98103.88;;;0.52;89.92
31357;BME280;60001;48.404;11.738;2023-02-14T08:02:23;98100.97;;;0.55;89.87
31357;BME280;60001;48.404;11.738;2023-02-14T08:03:56;98099.44;;;0.62;90.18
31357;BME280;60001;48.404;11.738;2023-02-14T08:05:28;98098.34;;;0.65;89.58
31357;BME280;60001;48.404;11.738;2023-02-14T08:07:00;98099.44;;;0.62;89.54
31357;BME280;60001;48.404;11.738;2023-02-14T08:08:32;98095.09;;;0.63;88.56
31357;BME280;60001;48.404;11.738;2023-02-14T08:10:05;98096.00;;;0.62;88.51
31357;BME280;60001;48.404;11.738;2023-02-14T08:11:37;98096.31;;;0.59;88.26
31357;BME280;60001;48.404;11.738;2023-02-14T08:13:27;98106.88;;;0.57;88.34
31357;BME280;60001;48.404;11.738;2023-02-14T08:14:59;98087.69;;;0.58;89.33
31357;BME280;60001;48.404;11.738;2023-02-14T08:16:45;98100.41;;;0.61;88.36
31357;BME280;60001;48.404;11.738;2023-02-14T08:18:18;98097.78;;;0.61;88.99
31357;BME280;60001;48.404;11.738;2023-02-14T08:19:51;98099.31;;;0.64;88.84
31357;BME280;60001;48.404;11.738;2023-02-14T08:21:23;98095.19;;;0.61;88.38
31357;BME280;60001;48.404;11.738;2023-02-14T08:22:55;98094.63;;;0.67;88.71
31357;BME280;60001;48.404;11.738;2023-02-14T08:24:27;98098.03;;;0.68;88.49
31357;BME280;60001;48.404;11.738;2023-02-14T08:26:00;98096.72;;;0.64;88.76
31357;BME280;60001;48.404;11.738;2023-02-14T08:27:32;98095.59;;;0.66;88.25
31357;BME280;60001;48.404;11.738;2023-02-14T08:29:04;98091.78;;;0.61;88.26